Time,TemperatureF,DewpointF,PressureIn,WindDirection,WindDirectionDegrees,WindSpeedMPH,WindSpeedGustMPH,Humidity,HourlyPrecipIn,Conditions,Clouds,dailyrainin,SolarRadiationWatts/m^2,SoftwareType,DateUTC
2013-04-17 00:10:00,40.5,34.0,30.29,East,88,0.0,1.0,79,0.00,,,0.00,0,weatherlink.com 1.10,2013-04-17 05:10:00,
2013-04-17 00:25:00,40.9,35.0,30.30,East,88,2.0,2.0,78,0.00,,,0.00,0,weatherlink.com 1.10,2013-04-17 05:25:00,
2013-04-17 00:40:00,40.9,35.0,30.30,East,88,1.0,2.0,78,0.00,,,0.00,0,weatherlink.com 1.10,2013-04-17 05:40:00,
2013-04-17 00:55:00,41.1,35.0,30.30,East,88,0.0,1.0,78,0.00,,,0.00,0,weatherlink.com 1.10,2013-04-17 05:55:00,
2013-04-17 01:10:00,41.1,35.0,30.30,NE,44,2.0,3.0,78,0.00,,,0.00,0,weatherlink.com 1.10,2013-04-17 06:10:00,
2013-04-17 01:25:00,40.9,35.0,30.31,NNE,13,0.0,2.0,80,0.00,,,0.00,0,weatherlink.com 1.10,2013-04-17 06:25:00,
2013-04-17 01:40:00,41.1,35.0,30.31,NE,39,2.0,2.0,78,0.00,,,0.00,0,weatherlink.com 1.10,2013-04-17 06:40:00,
2013-04-17 01:55:00,41.1,35.0,30.31,NE,37,1.0,3.0,79,0.00,,,0.00,0,weatherlink.com 1.10,2013-04-17 06:55:00,
2013-04-17 02:10:00,41.0,35.0,30.31,NW,324,1.0,4.0,79,0.00,,,0.00,0,weatherlink.com 1.10,2013-04-17 07:10:00,
2013-04-17 02:25:00,41.1,35.0,30.30,North,11,1.0,4.0,79,0.00,,,0.00,0,weatherlink.com 1.10,2013-04-17 07:25:00,
2013-04-17 02:40:00,41.1,35.0,30.31,NE,44,1.0,4.0,79,0.00,,,0.00,0,weatherlink.com 1.10,2013-04-17 07:40:00,
2013-04-17 02:55:00,40.9,36.0,30.31,NNE,13,1.0,3.0,81,0.00,,,0.00,0,weatherlink.com 1.10,2013-04-17 07:55:00,
2013-04-17 03:10:00,40.7,35.0,30.31,NNE,19,2.0,4.0,81,0.00,,,0.00,0,weatherlink.com 1.10,2013-04-17 08:10:00,
2013-04-17 03:25:00,40.2,35.0,30.30,NE,40,1.0,5.0,82,0.00,,,0.00,0,weatherlink.com 1.10,2013-04-17 08:25:00,
2013-04-17 03:41:00,39.8,36.0,30.32,NE,34,3.0,5.0,85,0.00,,,0.00,0,weatherlink.com 1.10,2013-04-17 08:41:00,
2013-04-17 03:55:00,39.3,36.0,30.31,ENE,69,1.0,6.0,86,0.00,,,0.00,0,weatherlink.com 1.10,2013-04-17 08:55:00,
2013-04-17 04:10:00,38.9,35.0,30.30,ENE,63,2.0,7.0,87,0.00,,,0.00,0,weatherlink.com 1.10,2013-04-17 09:10:00,
2013-04-17 04:25:00,39.0,36.0,30.30,NE,56,3.0,5.0,88,0.00,,,0.00,0,weatherlink.com 1.10,2013-04-17 09:25:00,
2013-04-17 04:40:00,39.0,36.0,30.30,NNW,343,2.0,7.0,88,0.00,,,0.00,0,weatherlink.com 1.10,2013-04-17 09:40:00,
2013-04-17 04:55:00,38.6,35.0,30.29,NNE,19,4.0,7.0,88,0.00,,,0.00,0,weatherlink.com 1.10,2013-04-17 09:55:00,
2013-04-17 05:10:00,38.4,36.0,30.29,NNE,32,2.0,8.0,89,0.00,,,0.00,0,weatherlink.com 1.10,2013-04-17 10:10:00,
2013-04-17 05:26:00,38.3,36.0,30.27,NE,44,3.0,9.0,90,0.00,,,0.00,0,weatherlink.com 1.10,2013-04-17 10:26:00,
2013-04-17 05:41:00,38.2,36.0,30.27,NE,35,4.0,8.0,90,0.00,,,0.00,0,weatherlink.com 1.10,2013-04-17 10:41:00,
2013-04-17 05:56:00,38.2,36.0,30.28,NNE,22,5.0,7.0,91,0.00,,,0.00,0,weatherlink.com 1.10,2013-04-17 10:56:00,
2013-04-17 06:11:00,38.2,36.0,30.28,NNE,22,1.0,9.0,91,0.00,,,0.00,5,weatherlink.com 1.10,2013-04-17 11:11:00,
2013-04-17 06:26:00,38.3,36.0,30.29,NE,43,7.0,10.0,90,0.00,,,0.00,19,weatherlink.com 1.10,2013-04-17 11:26:00,
2013-04-17 07:11:00,39.4,36.0,30.29,NE,42,2.0,10.0,88,0.00,,,0.00,88,weatherlink.com 1.10,2013-04-17 12:11:00,
2013-04-17 07:26:00,39.8,36.0,30.30,NE,34,4.0,7.0,86,0.00,,,0.00,98,weatherlink.com 1.10,2013-04-17 12:26:00,
2013-04-17 07:41:00,40.0,36.0,30.30,NE,36,1.0,8.0,85,0.00,,,0.00,107,weatherlink.com 1.10,2013-04-17 12:41:00,
2013-04-17 07:56:00,40.1,36.0,30.32,NNE,29,4.0,7.0,85,0.00,,,0.00,83,weatherlink.com 1.10,2013-04-17 12:56:00,
2013-04-17 08:11:00,40.6,36.0,30.34,NE,36,3.0,4.0,84,0.00,,,0.00,79,weatherlink.com 1.10,2013-04-17 13:11:00,
2013-04-17 08:26:00,40.3,36.0,30.33,ENE,65,1.0,5.0,85,0.00,,,0.00,70,weatherlink.com 1.10,2013-04-17 13:26:00,
2013-04-17 08:41:00,40.4,36.0,30.31,NE,36,2.0,8.0,85,0.00,,,0.00,146,weatherlink.com 1.10,2013-04-17 13:41:00,
2013-04-17 08:56:00,41.0,37.0,30.28,North,11,4.0,7.0,84,0.00,,,0.00,318,weatherlink.com 1.10,2013-04-17 13:56:00,
2013-04-17 09:11:00,40.8,36.0,30.26,ENE,58,7.0,10.0,84,0.00,,,0.00,227,weatherlink.com 1.10,2013-04-17 14:11:00,
2013-04-17 09:26:00,40.2,36.0,30.28,NE,53,4.0,9.0,84,0.00,,,0.00,60,weatherlink.com 1.10,2013-04-17 14:26:00,
2013-04-17 09:41:00,39.8,36.0,30.28,North,5,3.0,6.0,86,0.00,,,0.00,62,weatherlink.com 1.10,2013-04-17 14:41:00,
2013-04-17 09:56:00,39.7,36.0,30.24,NE,42,2.0,12.0,87,0.01,,,0.01,102,weatherlink.com 1.10,2013-04-17 14:56:00,
2013-04-17 10:11:00,39.2,36.0,30.24,NNE,32,4.0,9.0,89,0.01,,,0.01,104,weatherlink.com 1.10,2013-04-17 15:11:00,
2013-04-17 10:26:00,39.3,36.0,30.22,NE,40,1.0,11.0,89,0.01,,,0.01,127,weatherlink.com 1.10,2013-04-17 15:26:00,
2013-04-17 10:41:00,39.7,37.0,30.24,NNE,29,5.0,9.0,89,0.01,,,0.01,144,weatherlink.com 1.10,2013-04-17 15:41:00,
2013-04-17 10:56:00,39.7,37.0,30.28,NNW,332,0.0,6.0,88,0.00,,,0.01,33,weatherlink.com 1.10,2013-04-17 15:56:00,
2013-04-17 11:11:00,39.7,37.0,30.20,ENE,61,3.0,5.0,89,0.00,,,0.01,65,weatherlink.com 1.10,2013-04-17 16:11:00,
2013-04-17 11:26:00,39.5,37.0,30.19,NE,40,2.0,8.0,91,0.01,,,0.02,211,weatherlink.com 1.10,2013-04-17 16:26:00,
2013-04-17 11:56:00,39.8,37.0,30.19,NE,37,2.0,7.0,89,0.02,,,0.03,56,weatherlink.com 1.10,2013-04-17 16:56:00,
2013-04-17 12:11:00,39.5,37.0,30.13,NE,42,9.0,9.0,91,0.04,,,0.05,72,weatherlink.com 1.10,2013-04-17 17:11:00,
2013-04-17 12:26:00,39.5,37.0,30.17,East,83,2.0,8.0,92,0.06,,,0.08,148,weatherlink.com 1.10,2013-04-17 17:26:00,
2013-04-17 12:41:00,39.8,37.0,30.20,NE,53,5.0,8.0,91,0.05,,,0.08,63,weatherlink.com 1.10,2013-04-17 17:41:00,
2013-04-17 12:56:00,40.2,38.0,30.22,NNE,32,2.0,5.0,91,0.05,,,0.08,63,weatherlink.com 1.10,2013-04-17 17:56:00,
2013-04-17 13:11:00,40.2,38.0,30.20,NNE,23,1.0,4.0,91,0.04,,,0.09,21,weatherlink.com 1.10,2013-04-17 18:11:00,
2013-04-17 13:26:00,39.1,37.0,30.15,NE,41,2.0,7.0,92,0.04,,,0.12,21,weatherlink.com 1.10,2013-04-17 18:26:00,
2013-04-17 13:41:00,38.8,37.0,30.19,North,5,1.0,4.0,93,0.07,,,0.15,11,weatherlink.com 1.10,2013-04-17 18:41:00,
2013-04-17 13:56:00,38.8,37.0,30.17,NE,50,2.0,3.0,93,0.11,,,0.19,21,weatherlink.com 1.10,2013-04-17 18:56:00,
2013-04-17 14:11:00,38.6,37.0,30.14,North,355,4.0,10.0,94,0.13,,,0.22,14,weatherlink.com 1.10,2013-04-17 19:11:00,
2013-04-17 14:27:00,38.6,37.0,30.10,North,11,4.0,9.0,94,0.14,,,0.26,9,weatherlink.com 1.10,2013-04-17 19:27:00,
2013-04-17 14:42:00,38.6,37.0,30.19,NNW,329,1.0,8.0,95,0.12,,,0.28,5,weatherlink.com 1.10,2013-04-17 19:42:00,
2013-04-17 14:57:00,38.6,37.0,30.18,NNE,22,1.0,4.0,95,0.13,,,0.32,5,weatherlink.com 1.10,2013-04-17 19:57:00,
2013-04-17 15:12:00,38.3,37.0,30.15,NNE,15,0.0,4.0,95,0.14,,,0.36,11,weatherlink.com 1.10,2013-04-17 20:12:00,
2013-04-17 15:27:00,38.4,37.0,30.13,NE,51,4.0,6.0,95,0.13,,,0.39,7,weatherlink.com 1.10,2013-04-17 20:27:00,
2013-04-17 15:42:00,38.4,37.0,30.09,ENE,59,3.0,10.0,96,0.14,,,0.43,25,weatherlink.com 1.10,2013-04-17 20:42:00,
2013-04-17 15:57:00,38.9,38.0,30.07,ENE,63,4.0,12.0,96,0.14,,,0.46,37,weatherlink.com 1.10,2013-04-17 20:57:00,
2013-04-17 16:12:00,38.8,38.0,30.09,NNE,30,6.0,8.0,96,0.14,,,0.50,37,weatherlink.com 1.10,2013-04-17 21:12:00,
2013-04-17 16:27:00,38.7,38.0,30.07,NNE,19,3.0,9.0,96,0.14,,,0.53,18,weatherlink.com 1.10,2013-04-17 21:27:00,
2013-04-17 16:42:00,39.0,38.0,30.06,NE,46,4.0,9.0,96,0.13,,,0.56,23,weatherlink.com 1.10,2013-04-17 21:42:00,
2013-04-17 16:57:00,39.1,38.0,30.05,NNW,336,4.0,11.0,96,0.12,,,0.59,23,weatherlink.com 1.10,2013-04-17 21:57:00,
2013-04-17 17:12:00,39.3,38.0,30.08,NE,38,5.0,9.0,96,0.12,,,0.62,19,weatherlink.com 1.10,2013-04-17 22:12:00,
2013-04-17 17:27:00,39.3,38.0,30.09,NE,46,3.0,7.0,96,0.11,,,0.64,11,weatherlink.com 1.10,2013-04-17 22:27:00,
2013-04-17 17:42:00,39.6,39.0,30.08,East,84,5.0,8.0,96,0.10,,,0.66,12,weatherlink.com 1.10,2013-04-17 22:42:00,
2013-04-17 17:57:00,39.7,39.0,30.06,NE,36,3.0,7.0,96,0.08,,,0.68,9,weatherlink.com 1.10,2013-04-17 22:57:00,
2013-04-17 18:12:00,39.6,39.0,29.98,South,181,5.0,7.0,96,0.07,,,0.69,23,weatherlink.com 1.10,2013-04-17 23:12:00,
2013-04-17 18:27:00,39.7,39.0,30.04,NE,38,5.0,9.0,96,0.05,,,0.69,0,weatherlink.com 1.10,2013-04-17 23:27:00,
2013-04-17 18:42:00,39.7,39.0,30.05,East,84,6.0,9.0,97,0.03,,,0.69,0,weatherlink.com 1.10,2013-04-17 23:42:00,
2013-04-17 18:57:00,39.9,39.0,30.01,NE,48,5.0,8.0,97,0.01,,,0.69,0,weatherlink.com 1.10,2013-04-17 23:57:00,
2013-04-17 19:12:00,40.2,39.0,29.96,NE,44,3.0,11.0,97,0.00,,,0.69,0,weatherlink.com 1.10,2013-04-18 00:12:00,
2013-04-17 19:27:00,40.6,40.0,29.96,NE,43,2.0,10.0,97,0.00,,,0.69,0,weatherlink.com 1.10,2013-04-18 00:27:00,
2013-04-17 19:42:00,41.1,40.0,29.95,NE,36,4.0,15.0,97,0.00,,,0.69,0,weatherlink.com 1.10,2013-04-18 00:42:00,
2013-04-17 19:57:00,41.6,41.0,29.98,ENE,73,2.0,12.0,97,0.00,,,0.69,0,weatherlink.com 1.10,2013-04-18 00:57:00,
2013-04-17 20:12:00,42.2,41.0,29.96,SSE,163,2.0,7.0,97,0.00,,,0.69,0,weatherlink.com 1.10,2013-04-18 01:12:00,
2013-04-17 20:27:00,42.6,42.0,29.96,NE,38,1.0,8.0,96,0.00,,,0.69,0,weatherlink.com 1.10,2013-04-18 01:27:00,
2013-04-17 20:42:00,42.7,42.0,29.94,SSW,207,3.0,13.0,96,0.00,,,0.69,0,weatherlink.com 1.10,2013-04-18 01:42:00,
2013-04-17 20:57:00,42.5,42.0,29.94,SSE,157,0.0,9.0,96,0.00,,,0.69,0,weatherlink.com 1.10,2013-04-18 01:57:00,
2013-04-17 21:12:00,42.2,41.0,29.93,South,175,2.0,4.0,96,0.00,,,0.69,0,weatherlink.com 1.10,2013-04-18 02:12:00,
2013-04-17 21:28:00,42.2,41.0,29.89,SSW,207,3.0,6.0,96,0.00,,,0.69,0,weatherlink.com 1.10,2013-04-18 02:28:00,
2013-04-17 21:42:00,42.0,41.0,29.87,South,186,2.0,8.0,96,0.01,,,0.70,0,weatherlink.com 1.10,2013-04-18 02:42:00,
2013-04-17 21:57:00,41.8,41.0,29.94,NNW,327,2.0,7.0,96,0.01,,,0.70,0,weatherlink.com 1.10,2013-04-18 02:57:00,
2013-04-17 22:12:00,41.8,41.0,29.94,NNW,340,1.0,3.0,96,0.01,,,0.70,0,weatherlink.com 1.10,2013-04-18 03:12:00,
2013-04-17 22:27:00,41.5,41.0,29.92,NE,49,1.0,3.0,96,0.01,,,0.70,0,weatherlink.com 1.10,2013-04-18 03:27:00,
2013-04-17 22:42:00,41.3,40.0,29.90,NE,40,0.0,4.0,96,0.01,,,0.71,0,weatherlink.com 1.10,2013-04-18 03:42:00,
2013-04-17 22:57:00,41.2,40.0,29.88,SE,132,3.0,5.0,96,0.02,,,0.72,0,weatherlink.com 1.10,2013-04-18 03:57:00,
2013-04-17 23:12:00,41.3,40.0,29.86,SW,214,0.0,5.0,96,0.03,,,0.73,0,weatherlink.com 1.10,2013-04-18 04:12:00,
2013-04-17 23:27:00,41.3,40.0,29.87,SE,146,2.0,9.0,96,0.04,,,0.74,0,weatherlink.com 1.10,2013-04-18 04:27:00,
2013-04-17 23:42:00,41.2,40.0,29.88,NNE,23,1.0,5.0,96,0.04,,,0.75,0,weatherlink.com 1.10,2013-04-18 04:42:00,
2013-04-17 23:57:00,40.7,40.0,29.87,NE,52,2.0,4.0,96,0.04,,,0.76,0,weatherlink.com 1.10,2013-04-18 04:57:00,